19:56
Airports
History
Links
Donate
Help keep this website running!
PayPal
Bitcoin
Information on this page is community maintained and may be outdated or inaccurate and is intended for reference only or PC simulator navigating!
Always use approved charts for navigating.
SC33
Cox
Cox (SC33)
Greenville, South Carolina, United States (29607)
4
Lat/Lng:34° 49' 27.43" N / 82° 15' 35.42" W
34.824285 / -82.259838
Elevation:1000'ft 305mMSL
ID / ICAO:SC33
Runways:1
Longest:(10-28) 482.8m 1,584ft Grass
Distance To
Airport ID:
Nearby VORs <50NM
Nearby NDBs
Nearby WeatherUpdated 03-24-17 18:53 GMT
Nearby weather at KGMU, Greenville Downtown located 5.4 nautical miles from SC33
Altimeter: 30.41
Visibility: 10.0 statute miles
Wind: 5 knots (VRB°)
Temp: 19°c 66°f
Humidity: 45.6%

METAR: KGMU 241853Z VRB05KT 10SM CLR 19/07 A3041 RMK AO2 SLP296 T01940072

(Powered by phpweather)
Runway 10 / 28
Dimensions:482.8 x 15.2m 1584' x 50'ft
Surface:Grass
Runway 10 [A]Runway 28 [B]
Heading:096°TH 276°TH
Lat:
Lng:
34° 49' 28.25"N
82° 15' 44.99"W
34° 49' 26.6"N
82° 15' 25.85"W
Google Map
Nearby Airports
(R) Hartness 1.6 NM
SC58 NNE 16°
(C) Greenville Downtown 5.4 NM
KGMU (WX) WNW 287°
(C) Greenville Spartanburg Intl 5.5 NM
KGSP (WX) NNE 25°
(R) Parker Field 7.1 NM
SC47 SE 127°
(C) Donaldson Center 8.0 NM
KGYH SW 235°
4 Riverbend Airpark 8.1 NM
SC97 SSW 213°
(R) Green Pond 10.0 NM
SC39 E 93°
VFR Chart
Flight Planning at SkyVector.com